sensor_id;sensor_type;location;lat;lon;timestamp;temperature;humidity
10492;DHT22;5293;51.464;-2.566;2022-07-05T00:00:45;15.80;99.90
10492;DHT22;5293;51.464;-2.566;2022-07-05T00:03:10;15.80;99.90
10492;DHT22;5293;51.464;-2.566;2022-07-05T00:05:37;15.80;99.90
10492;DHT22;5293;51.464;-2.566;2022-07-05T00:08:04;15.70;99.90
10492;DHT22;5293;51.464;-2.566;2022-07-05T00:10:30;15.80;99.90
10492;DHT22;5293;51.464;-2.566;2022-07-05T00:12:56;15.70;99.90
10492;DHT22;5293;51.464;-2.566;2022-07-05T00:15:22;15.70;99.90
10492;DHT22;5293;51.464;-2.566;2022-07-05T00:17:48;15.70;99.90
10492;DHT22;5293;51.464;-2.566;2022-07-05T00:20:14;15.60;99.90
10492;DHT22;5293;51.464;-2.566;2022-07-05T00:22:41;15.60;99.90
10492;DHT22;5293;51.464;-2.566;2022-07-05T00:25:07;15.60;99.90
10492;DHT22;5293;51.464;-2.566;2022-07-05T00:27:32;15.60;99.90
10492;DHT22;5293;51.464;-2.566;2022-07-05T00:29:58;15.50;99.90
10492;DHT22;5293;51.464;-2.566;2022-07-05T00:32:24;15.50;99.90
10492;DHT22;5293;51.464;-2.566;2022-07-05T00:34:50;15.50;99.90
10492;DHT22;5293;51.464;-2.566;2022-07-05T00:37:17;15.50;99.90
10492;DHT22;5293;51.464;-2.566;2022-07-05T00:39:43;15.50;99.90
10492;DHT22;5293;51.464;-2.566;2022-07-05T00:42:08;15.50;99.90
10492;DHT22;5293;51.464;-2.566;2022-07-05T00:44:36;15.50;99.90
10492;DHT22;5293;51.464;-2.566;2022-07-05T00:47:06;15.50;99.90
10492;DHT22;5293;51.464;-2.566;2022-07-05T00:49:33;15.50;99.90
10492;DHT22;5293;51.464;-2.566;2022-07-05T00:51:59;15.40;99.90
10492;DHT22;5293;51.464;-2.566;2022-07-05T00:54:30;15.30;99.90
10492;DHT22;5293;51.464;-2.566;2022-07-05T00:56:57;15.30;99.90
10492;DHT22;5293;51.464;-2.566;2022-07-05T00:59:23;15.20;99.90
10492;DHT22;5293;51.464;-2.566;2022-07-05T01:01:49;15.20;99.90
10492;DHT22;5293;51.464;-2.566;2022-07-05T01:04:15;15.20;99.90
10492;DHT22;5293;51.464;-2.566;2022-07-05T01:06:45;15.20;99.90
10492;DHT22;5293;51.464;-2.566;2022-07-05T01:09:13;15.30;99.90
10492;DHT22;5293;51.464;-2.566;2022-07-05T01:11:43;15.20;99.90
10492;DHT22;5293;51.464;-2.566;2022-07-05T01:14:09;15.20;99.90
10492;DHT22;5293;51.464;-2.566;2022-07-05T01:16:38;15.10;99.90
10492;DHT22;5293;51.464;-2.566;2022-07-05T01:19:05;15.10;99.90
10492;DHT22;5293;51.464;-2.566;2022-07-05T01:21:35;15.00;99.90
10492;DHT22;5293;51.464;-2.566;2022-07-05T01:24:03;15.00;99.90
10492;DHT22;5293;51.464;-2.566;2022-07-05T01:26:29;14.90;99.90
10492;DHT22;5293;51.464;-2.566;2022-07-05T01:28:55;14.80;99.90
10492;DHT22;5293;51.464;-2.566;2022-07-05T01:31:21;14.80;99.90
10492;DHT22;5293;51.464;-2.566;2022-07-05T01:33:46;14.70;99.90
10492;DHT22;5293;51.464;-2.566;2022-07-05T01:36:13;14.70;99.90
10492;DHT22;5293;51.464;-2.566;2022-07-05T01:38:39;14.60;99.90
10492;DHT22;5293;51.464;-2.566;2022-07-05T01:41:05;14.60;99.90
10492;DHT22;5293;51.464;-2.566;2022-07-05T01:43:30;14.60;99.90
10492;DHT22;5293;51.464;-2.566;2022-07-05T01:45:58;14.50;99.90
10492;DHT22;5293;51.464;-2.566;2022-07-05T01:48:26;14.50;99.90
10492;DHT22;5293;51.464;-2.566;2022-07-05T01:51:03;14.50;99.90
10492;DHT22;5293;51.464;-2.566;2022-07-05T01:53:31;14.50;99.90
10492;DHT22;5293;51.464;-2.566;2022-07-05T01:55:58;14.50;99.90
10492;DHT22;5293;51.464;-2.566;2022-07-05T01:58:27;14.50;99.90
10492;DHT22;5293;51.464;-2.566;2022-07-05T02:00:55;14.50;99.90
10492;DHT22;5293;51.464;-2.566;2022-07-05T02:03:22;14.40;99.90
10492;DHT22;5293;51.464;-2.566;2022-07-05T02:05:48;14.40;99.90
10492;DHT22;5293;51.464;-2.566;2022-07-05T02:08:15;14.30;99.90
10492;DHT22;5293;51.464;-2.566;2022-07-05T02:10:41;14.30;99.90
10492;DHT22;5293;51.464;-2.566;2022-07-05T02:13:07;14.20;99.90
10492;DHT22;5293;51.464;-2.566;2022-07-05T02:15:36;14.20;99.90
10492;DHT22;5293;51.464;-2.566;2022-07-05T02:18:02;14.20;99.90
10492;DHT22;5293;51.464;-2.566;2022-07-05T02:20:29;14.20;99.90
10492;DHT22;5293;51.464;-2.566;2022-07-05T02:22:55;14.20;99.90
10492;DHT22;5293;51.464;-2.566;2022-07-05T02:25:21;14.20;99.90
10492;DHT22;5293;51.464;-2.566;2022-07-05T02:27:47;14.10;99.90
10492;DHT22;5293;51.464;-2.566;2022-07-05T02:30:13;14.10;99.90
10492;DHT22;5293;51.464;-2.566;2022-07-05T02:32:39;14.10;99.90
10492;DHT22;5293;51.464;-2.566;2022-07-05T02:35:08;14.10;99.90
10492;DHT22;5293;51.464;-2.566;2022-07-05T02:37:35;14.10;99.90
10492;DHT22;5293;51.464;-2.566;2022-07-05T02:40:01;14.00;99.90
10492;DHT22;5293;51.464;-2.566;2022-07-05T02:42:26;14.00;99.90
10492;DHT22;5293;51.464;-2.566;2022-07-05T02:44:52;14.00;99.90
10492;DHT22;5293;51.464;-2.566;2022-07-05T02:47:18;14.00;99.90
10492;DHT22;5293;51.464;-2.566;2022-07-05T02:49:43;14.00;99.90
10492;DHT22;5293;51.464;-2.566;2022-07-05T02:52:09;14.00;99.90
10492;DHT22;5293;51.464;-2.566;2022-07-05T02:54:36;14.00;99.90
10492;DHT22;5293;51.464;-2.566;2022-07-05T02:57:05;13.90;99.90
10492;DHT22;5293;51.464;-2.566;2022-07-05T02:59:30;13.90;99.90
10492;DHT22;5293;51.464;-2.566;2022-07-05T03:01:56;13.90;99.90
10492;DHT22;5293;51.464;-2.566;2022-07-05T03:04:22;13.80;99.90
10492;DHT22;5293;51.464;-2.566;2022-07-05T03:06:47;13.80;99.90
10492;DHT22;5293;51.464;-2.566;2022-07-05T03:09:13;13.80;99.90
10492;DHT22;5293;51.464;-2.566;2022-07-05T03:11:39;13.80;99.90
10492;DHT22;5293;51.464;-2.566;2022-07-05T03:14:05;13.80;99.90
10492;DHT22;5293;51.464;-2.566;2022-07-05T03:16:30;13.70;99.90
10492;DHT22;5293;51.464;-2.566;2022-07-05T03:18:56;13.70;99.90
10492;DHT22;5293;51.464;-2.566;2022-07-05T03:21:22;13.60;99.90
10492;DHT22;5293;51.464;-2.566;2022-07-05T03:23:48;13.60;99.90
10492;DHT22;5293;51.464;-2.566;2022-07-05T03:26:13;13.60;99.90
10492;DHT22;5293;51.464;-2.566;2022-07-05T03:28:39;13.60;99.90
10492;DHT22;5293;51.464;-2.566;2022-07-05T03:31:05;13.60;99.90
10492;DHT22;5293;51.464;-2.566;2022-07-05T03:33:31;13.50;99.90
10492;DHT22;5293;51.464;-2.566;2022-07-05T03:35:57;13.60;99.90
10492;DHT22;5293;51.464;-2.566;2022-07-05T03:38:23;13.60;99.90
10492;DHT22;5293;51.464;-2.566;2022-07-05T03:40:48;13.50;99.90
10492;DHT22;5293;51.464;-2.566;2022-07-05T03:43:14;13.60;99.90
10492;DHT22;5293;51.464;-2.566;2022-07-05T03:45:40;13.50;99.90
10492;DHT22;5293;51.464;-2.566;2022-07-05T03:48:05;13.50;99.90
10492;DHT22;5293;51.464;-2.566;2022-07-05T03:50:31;13.50;99.90
10492;DHT22;5293;51.464;-2.566;2022-07-05T03:52:57;13.50;99.90
10492;DHT22;5293;51.464;-2.566;2022-07-05T03:55:22;13.50;99.90
10492;DHT22;5293;51.464;-2.566;2022-07-05T03:57:48;13.50;99.90
10492;DHT22;5293;51.464;-2.566;2022-07-05T04:00:14;13.50;99.90
10492;DHT22;5293;51.464;-2.566;2022-07-05T04:02:40;13.50;99.90
10492;DHT22;5293;51.464;-2.566;2022-07-05T04:05:09;13.50;99.90
10492;DHT22;5293;51.464;-2.566;2022-07-05T04:07:55;13.50;99.90
10492;DHT22;5293;51.464;-2.566;2022-07-05T04:10:22;13.40;99.90
10492;DHT22;5293;51.464;-2.566;2022-07-05T04:12:48;13.40;99.90
10492;DHT22;5293;51.464;-2.566;2022-07-05T04:15:15;13.40;99.90
10492;DHT22;5293;51.464;-2.566;2022-07-05T04:17:48;13.40;99.90
10492;DHT22;5293;51.464;-2.566;2022-07-05T04:20:14;13.40;99.90
10492;DHT22;5293;51.464;-2.566;2022-07-05T04:22:43;13.40;99.90
10492;DHT22;5293;51.464;-2.566;2022-07-05T04:25:09;13.40;99.90
10492;DHT22;5293;51.464;-2.566;2022-07-05T04:27:49;13.40;99.90
10492;DHT22;5293;51.464;-2.566;2022-07-05T04:30:16;13.40;99.90
10492;DHT22;5293;51.464;-2.566;2022-07-05T04:32:42;13.30;99.90
10492;DHT22;5293;51.464;-2.566;2022-07-05T04:35:09;13.40;99.90
10492;DHT22;5293;51.464;-2.566;2022-07-05T04:37:36;13.40;99.90
10492;DHT22;5293;51.464;-2.566;2022-07-05T04:40:04;13.40;99.90
10492;DHT22;5293;51.464;-2.566;2022-07-05T04:42:30;13.40;99.90
10492;DHT22;5293;51.464;-2.566;2022-07-05T04:44:56;13.50;99.90
10492;DHT22;5293;51.464;-2.566;2022-07-05T04:47:22;13.60;99.90
10492;DHT22;5293;51.464;-2.566;2022-07-05T04:49:48;13.70;99.90
10492;DHT22;5293;51.464;-2.566;2022-07-05T04:52:13;13.70;99.90
10492;DHT22;5293;51.464;-2.566;2022-07-05T04:54:39;13.80;99.90
10492;DHT22;5293;51.464;-2.566;2022-07-05T04:57:05;13.90;99.90
10492;DHT22;5293;51.464;-2.566;2022-07-05T04:59:30;14.00;99.90
10492;DHT22;5293;51.464;-2.566;2022-07-05T05:01:56;14.00;99.90
10492;DHT22;5293;51.464;-2.566;2022-07-05T05:04:22;14.10;99.90
10492;DHT22;5293;51.464;-2.566;2022-07-05T05:06:48;14.20;99.90
10492;DHT22;5293;51.464;-2.566;2022-07-05T05:09:13;14.30;99.90
10492;DHT22;5293;51.464;-2.566;2022-07-05T05:11:39;14.40;99.90
10492;DHT22;5293;51.464;-2.566;2022-07-05T05:14:05;14.50;99.90
10492;DHT22;5293;51.464;-2.566;2022-07-05T05:16:30;14.50;99.90
10492;DHT22;5293;51.464;-2.566;2022-07-05T05:18:56;14.60;99.90
10492;DHT22;5293;51.464;-2.566;2022-07-05T05:21:22;14.60;99.90
10492;DHT22;5293;51.464;-2.566;2022-07-05T05:23:48;14.60;99.90
10492;DHT22;5293;51.464;-2.566;2022-07-05T05:26:14;14.60;99.90
10492;DHT22;5293;51.464;-2.566;2022-07-05T05:28:40;14.70;99.90
10492;DHT22;5293;51.464;-2.566;2022-07-05T05:31:06;14.70;99.90
10492;DHT22;5293;51.464;-2.566;2022-07-05T05:33:32;14.80;99.90
10492;DHT22;5293;51.464;-2.566;2022-07-05T05:35:57;14.90;99.90
10492;DHT22;5293;51.464;-2.566;2022-07-05T05:38:23;15.00;99.90
10492;DHT22;5293;51.464;-2.566;2022-07-05T05:40:49;15.00;99.90
10492;DHT22;5293;51.464;-2.566;2022-07-05T05:43:14;15.10;99.90
10492;DHT22;5293;51.464;-2.566;2022-07-05T05:45:40;15.20;99.90
10492;DHT22;5293;51.464;-2.566;2022-07-05T05:48:06;15.40;99.90
10492;DHT22;5293;51.464;-2.566;2022-07-05T05:50:37;15.50;99.90
10492;DHT22;5293;51.464;-2.566;2022-07-05T05:53:04;15.60;99.90
10492;DHT22;5293;51.464;-2.566;2022-07-05T05:55:30;15.70;99.90
10492;DHT22;5293;51.464;-2.566;2022-07-05T05:57:58;15.80;99.90
10492;DHT22;5293;51.464;-2.566;2022-07-05T06:00:35;16.00;99.90
10492;DHT22;5293;51.464;-2.566;2022-07-05T06:03:00;16.10;99.90
10492;DHT22;5293;51.464;-2.566;2022-07-05T06:05:27;16.20;99.90
10492;DHT22;5293;51.464;-2.566;2022-07-05T06:07:54;16.20;99.90
10492;DHT22;5293;51.464;-2.566;2022-07-05T06:10:22;16.20;99.90
10492;DHT22;5293;51.464;-2.566;2022-07-05T06:12:49;16.30;99.90
10492;DHT22;5293;51.464;-2.566;2022-07-05T06:15:15;16.40;99.90
10492;DHT22;5293;51.464;-2.566;2022-07-05T06:17:41;16.60;99.90
10492;DHT22;5293;51.464;-2.566;2022-07-05T06:20:13;16.70;99.90
10492;DHT22;5293;51.464;-2.566;2022-07-05T06:22:39;16.70;99.90
10492;DHT22;5293;51.464;-2.566;2022-07-05T06:25:05;16.80;99.90
10492;DHT22;5293;51.464;-2.566;2022-07-05T06:27:32;17.00;99.90
10492;DHT22;5293;51.464;-2.566;2022-07-05T06:29:57;17.10;99.90
10492;DHT22;5293;51.464;-2.566;2022-07-05T06:32:24;17.30;99.90
10492;DHT22;5293;51.464;-2.566;2022-07-05T06:34:49;17.40;99.90
10492;DHT22;5293;51.464;-2.566;2022-07-05T06:37:15;17.40;99.90
10492;DHT22;5293;51.464;-2.566;2022-07-05T06:39:41;17.30;99.90
10492;DHT22;5293;51.464;-2.566;2022-07-05T06:42:08;17.40;99.90
10492;DHT22;5293;51.464;-2.566;2022-07-05T06:44:33;17.50;99.90
10492;DHT22;5293;51.464;-2.566;2022-07-05T06:46:59;17.70;99.90
10492;DHT22;5293;51.464;-2.566;2022-07-05T06:49:25;17.80;99.90
10492;DHT22;5293;51.464;-2.566;2022-07-05T06:51:50;17.90;99.90
10492;DHT22;5293;51.464;-2.566;2022-07-05T06:54:16;17.90;99.90
10492;DHT22;5293;51.464;-2.566;2022-07-05T06:56:41;18.00;99.90
10492;DHT22;5293;51.464;-2.566;2022-07-05T06:59:07;18.10;99.90
10492;DHT22;5293;51.464;-2.566;2022-07-05T07:01:33;18.30;99.90
10492;DHT22;5293;51.464;-2.566;2022-07-05T07:03:58;18.30;99.90
10492;DHT22;5293;51.464;-2.566;2022-07-05T07:06:24;18.40;99.90
10492;DHT22;5293;51.464;-2.566;2022-07-05T07:08:49;18.30;99.90
10492;DHT22;5293;51.464;-2.566;2022-07-05T07:11:34;18.40;99.90
10492;DHT22;5293;51.464;-2.566;2022-07-05T07:14:00;18.30;99.90
10492;DHT22;5293;51.464;-2.566;2022-07-05T07:16:25;18.50;99.90
10492;DHT22;5293;51.464;-2.566;2022-07-05T07:18:51;18.70;99.90
10492;DHT22;5293;51.464;-2.566;2022-07-05T07:21:17;18.80;99.90
10492;DHT22;5293;51.464;-2.566;2022-07-05T07:23:42;18.80;99.90
10492;DHT22;5293;51.464;-2.566;2022-07-05T07:26:08;18.90;99.90
10492;DHT22;5293;51.464;-2.566;2022-07-05T07:28:34;18.90;99.90
10492;DHT22;5293;51.464;-2.566;2022-07-05T07:30:59;18.90;99.90
10492;DHT22;5293;51.464;-2.566;2022-07-05T07:33:25;19.00;99.90
10492;DHT22;5293;51.464;-2.566;2022-07-05T07:35:51;19.10;99.90
10492;DHT22;5293;51.464;-2.566;2022-07-05T07:38:16;19.20;99.90
10492;DHT22;5293;51.464;-2.566;2022-07-05T07:40:42;19.20;99.90
10492;DHT22;5293;51.464;-2.566;2022-07-05T07:43:07;19.20;99.90
10492;DHT22;5293;51.464;-2.566;2022-07-05T07:45:33;19.40;99.90
10492;DHT22;5293;51.464;-2.566;2022-07-05T07:47:59;19.50;99.90
10492;DHT22;5293;51.464;-2.566;2022-07-05T07:50:25;19.50;99.90
10492;DHT22;5293;51.464;-2.566;2022-07-05T07:52:50;19.60;99.90
10492;DHT22;5293;51.464;-2.566;2022-07-05T07:55:16;19.70;99.90
10492;DHT22;5293;51.464;-2.566;2022-07-05T07:57:41;19.70;99.90
10492;DHT22;5293;51.464;-2.566;2022-07-05T08:00:08;19.70;99.90
10492;DHT22;5293;51.464;-2.566;2022-07-05T08:02:34;19.60;99.90
10492;DHT22;5293;51.464;-2.566;2022-07-05T08:04:59;19.80;99.90
10492;DHT22;5293;51.464;-2.566;2022-07-05T08:07:26;19.70;99.90
10492;DHT22;5293;51.464;-2.566;2022-07-05T08:09:51;19.70;99.90
10492;DHT22;5293;51.464;-2.566;2022-07-05T08:12:19;19.80;99.90
10492;DHT22;5293;51.464;-2.566;2022-07-05T08:14:45;19.90;99.90
10492;DHT22;5293;51.464;-2.566;2022-07-05T08:17:11;20.00;99.90
10492;DHT22;5293;51.464;-2.566;2022-07-05T08:19:37;20.00;99.90
10492;DHT22;5293;51.464;-2.566;2022-07-05T08:22:41;20.10;99.90
10492;DHT22;5293;51.464;-2.566;2022-07-05T08:25:07;20.20;99.90
10492;DHT22;5293;51.464;-2.566;2022-07-05T08:27:33;20.10;99.90
10492;DHT22;5293;51.464;-2.566;2022-07-05T08:29:58;20.10;99.90
10492;DHT22;5293;51.464;-2.566;2022-07-05T08:32:24;20.00;99.90
10492;DHT22;5293;51.464;-2.566;2022-07-05T08:34:50;20.10;99.90
10492;DHT22;5293;51.464;-2.566;2022-07-05T08:37:15;20.10;99.90
10492;DHT22;5293;51.464;-2.566;2022-07-05T08:39:41;20.20;99.90
10492;DHT22;5293;51.464;-2.566;2022-07-05T08:42:10;20.30;99.90
10492;DHT22;5293;51.464;-2.566;2022-07-05T08:44:38;20.40;99.90
10492;DHT22;5293;51.464;-2.566;2022-07-05T08:47:09;20.40;99.90
10492;DHT22;5293;51.464;-2.566;2022-07-05T08:49:38;20.40;99.90
10492;DHT22;5293;51.464;-2.566;2022-07-05T08:52:04;20.70;99.90
10492;DHT22;5293;51.464;-2.566;2022-07-05T08:54:32;20.70;99.90
10492;DHT22;5293;51.464;-2.566;2022-07-05T08:56:59;20.50;99.90
10492;DHT22;5293;51.464;-2.566;2022-07-05T08:59:24;20.50;99.90
10492;DHT22;5293;51.464;-2.566;2022-07-05T09:01:50;20.50;99.90
10492;DHT22;5293;51.464;-2.566;2022-07-05T09:04:17;20.40;99.90
10492;DHT22;5293;51.464;-2.566;2022-07-05T09:06:46;20.50;99.90
10492;DHT22;5293;51.464;-2.566;2022-07-05T09:09:13;20.60;99.90
10492;DHT22;5293;51.464;-2.566;2022-07-05T09:11:41;20.40;99.90
10492;DHT22;5293;51.464;-2.566;2022-07-05T09:14:20;20.40;99.90
10492;DHT22;5293;51.464;-2.566;2022-07-05T09:16:46;20.10;99.90
10492;DHT22;5293;51.464;-2.566;2022-07-05T09:19:11;20.30;99.90
10492;DHT22;5293;51.464;-2.566;2022-07-05T09:21:37;20.20;99.90
10492;DHT22;5293;51.464;-2.566;2022-07-05T09:24:05;20.30;99.90
10492;DHT22;5293;51.464;-2.566;2022-07-05T09:26:47;20.20;99.90
10492;DHT22;5293;51.464;-2.566;2022-07-05T09:29:19;20.30;99.90
10492;DHT22;5293;51.464;-2.566;2022-07-05T09:31:48;20.40;99.90
10492;DHT22;5293;51.464;-2.566;2022-07-05T09:34:19;20.40;99.90
10492;DHT22;5293;51.464;-2.566;2022-07-05T09:36:49;20.50;99.90
10492;DHT22;5293;51.464;-2.566;2022-07-05T09:39:15;20.50;99.90
10492;DHT22;5293;51.464;-2.566;2022-07-05T09:41:41;20.60;99.90
10492;DHT22;5293;51.464;-2.566;2022-07-05T09:44:07;20.70;99.90
10492;DHT22;5293;51.464;-2.566;2022-07-05T09:46:33;20.80;99.90
10492;DHT22;5293;51.464;-2.566;2022-07-05T09:49:00;20.60;99.90
10492;DHT22;5293;51.464;-2.566;2022-07-05T09:51:25;20.40;99.90
10492;DHT22;5293;51.464;-2.566;2022-07-05T09:53:54;20.40;99.90
10492;DHT22;5293;51.464;-2.566;2022-07-05T09:56:21;20.50;99.90
10492;DHT22;5293;51.464;-2.566;2022-07-05T09:58:47;20.50;99.90
10492;DHT22;5293;51.464;-2.566;2022-07-05T10:01:29;20.40;99.90
10492;DHT22;5293;51.464;-2.566;2022-07-05T10:03:59;20.40;99.90
10492;DHT22;5293;51.464;-2.566;2022-07-05T10:06:28;20.50;99.90
10492;DHT22;5293;51.464;-2.566;2022-07-05T10:08:54;20.50;99.90
10492;DHT22;5293;51.464;-2.566;2022-07-05T10:11:21;20.60;99.90
10492;DHT22;5293;51.464;-2.566;2022-07-05T10:13:52;20.70;99.90
10492;DHT22;5293;51.464;-2.566;2022-07-05T10:16:20;20.80;99.90
10492;DHT22;5293;51.464;-2.566;2022-07-05T10:18:51;20.80;99.90
10492;DHT22;5293;51.464;-2.566;2022-07-05T10:21:18;20.90;99.90
10492;DHT22;5293;51.464;-2.566;2022-07-05T10:23:49;20.70;99.90
10492;DHT22;5293;51.464;-2.566;2022-07-05T10:26:24;20.80;99.90
10492;DHT22;5293;51.464;-2.566;2022-07-05T10:28:52;20.70;99.90
10492;DHT22;5293;51.464;-2.566;2022-07-05T10:31:18;20.70;99.90
10492;DHT22;5293;51.464;-2.566;2022-07-05T10:33:44;20.70;99.90
10492;DHT22;5293;51.464;-2.566;2022-07-05T10:36:11;20.70;99.90
10492;DHT22;5293;51.464;-2.566;2022-07-05T10:38:39;20.60;99.90
10492;DHT22;5293;51.464;-2.566;2022-07-05T10:41:08;20.60;99.90
10492;DHT22;5293;51.464;-2.566;2022-07-05T10:43:34;20.50;99.90
10492;DHT22;5293;51.464;-2.566;2022-07-05T10:46:00;20.40;99.90
10492;DHT22;5293;51.464;-2.566;2022-07-05T10:48:28;20.60;99.90
10492;DHT22;5293;51.464;-2.566;2022-07-05T10:58:46;22.00;99.90
10492;DHT22;5293;51.464;-2.566;2022-07-05T11:03:49;21.90;99.90
10492;DHT22;5293;51.464;-2.566;2022-07-05T11:06:27;21.80;99.90
10492;DHT22;5293;51.464;-2.566;2022-07-05T11:11:32;21.50;99.90
10492;DHT22;5293;51.464;-2.566;2022-07-05T11:13:59;21.40;99.90
10492;DHT22;5293;51.464;-2.566;2022-07-05T11:16:31;21.40;99.90
10492;DHT22;5293;51.464;-2.566;2022-07-05T11:21:33;21.40;99.90
10492;DHT22;5293;51.464;-2.566;2022-07-05T11:24:18;21.50;99.90
10492;DHT22;5293;51.464;-2.566;2022-07-05T11:26:45;21.60;99.90
10492;DHT22;5293;51.464;-2.566;2022-07-05T11:29:41;21.70;99.90
10492;DHT22;5293;51.464;-2.566;2022-07-05T11:32:17;21.60;99.90
10492;DHT22;5293;51.464;-2.566;2022-07-05T11:34:51;21.40;99.90
10492;DHT22;5293;51.464;-2.566;2022-07-05T11:42:36;21.60;99.90
10492;DHT22;5293;51.464;-2.566;2022-07-05T11:45:06;21.60;99.90
10492;DHT22;5293;51.464;-2.566;2022-07-05T11:47:33;21.70;99.90
10492;DHT22;5293;51.464;-2.566;2022-07-05T11:49:59;21.90;99.90
10492;DHT22;5293;51.464;-2.566;2022-07-05T11:52:26;22.00;99.90
10492;DHT22;5293;51.464;-2.566;2022-07-05T11:54:52;21.90;99.90
10492;DHT22;5293;51.464;-2.566;2022-07-05T11:57:20;21.90;99.90
10492;DHT22;5293;51.464;-2.566;2022-07-05T11:59:46;22.10;99.90
10492;DHT22;5293;51.464;-2.566;2022-07-05T12:02:12;22.40;99.90
10492;DHT22;5293;51.464;-2.566;2022-07-05T12:04:38;22.50;99.90
10492;DHT22;5293;51.464;-2.566;2022-07-05T12:07:04;22.50;99.90
10492;DHT22;5293;51.464;-2.566;2022-07-05T12:09:32;22.40;99.90
10492;DHT22;5293;51.464;-2.566;2022-07-05T12:12:22;22.30;99.90
10492;DHT22;5293;51.464;-2.566;2022-07-05T12:15:07;22.30;99.90
10492;DHT22;5293;51.464;-2.566;2022-07-05T12:17:37;22.10;99.90
10492;DHT22;5293;51.464;-2.566;2022-07-05T12:20:08;22.10;99.90
10492;DHT22;5293;51.464;-2.566;2022-07-05T12:22:35;21.90;99.90
10492;DHT22;5293;51.464;-2.566;2022-07-05T12:25:02;21.70;99.90
10492;DHT22;5293;51.464;-2.566;2022-07-05T12:27:30;21.70;99.90
10492;DHT22;5293;51.464;-2.566;2022-07-05T12:29:56;21.70;99.90
10492;DHT22;5293;51.464;-2.566;2022-07-05T12:32:22;21.80;99.90
10492;DHT22;5293;51.464;-2.566;2022-07-05T12:34:48;21.90;99.90
10492;DHT22;5293;51.464;-2.566;2022-07-05T12:37:23;22.10;99.90
10492;DHT22;5293;51.464;-2.566;2022-07-05T12:39:50;22.10;99.90
10492;DHT22;5293;51.464;-2.566;2022-07-05T12:42:44;22.10;99.90
10492;DHT22;5293;51.464;-2.566;2022-07-05T12:45:16;21.90;99.90
10492;DHT22;5293;51.464;-2.566;2022-07-05T12:47:54;21.80;99.90
10492;DHT22;5293;51.464;-2.566;2022-07-05T12:50:21;21.40;99.90
10492;DHT22;5293;51.464;-2.566;2022-07-05T12:53:14;21.40;99.90
10492;DHT22;5293;51.464;-2.566;2022-07-05T12:56:08;21.30;99.90
10492;DHT22;5293;51.464;-2.566;2022-07-05T12:58:57;21.40;99.90
10492;DHT22;5293;51.464;-2.566;2022-07-05T13:01:29;21.70;99.90
10492;DHT22;5293;51.464;-2.566;2022-07-05T13:04:09;21.70;99.90
10492;DHT22;5293;51.464;-2.566;2022-07-05T13:06:45;21.70;99.90
10492;DHT22;5293;51.464;-2.566;2022-07-05T13:09:13;21.60;99.90
10492;DHT22;5293;51.464;-2.566;2022-07-05T13:11:39;21.50;99.90
10492;DHT22;5293;51.464;-2.566;2022-07-05T13:14:05;21.50;99.90
10492;DHT22;5293;51.464;-2.566;2022-07-05T13:16:31;21.60;99.90
10492;DHT22;5293;51.464;-2.566;2022-07-05T13:19:12;21.60;99.90
10492;DHT22;5293;51.464;-2.566;2022-07-05T13:21:38;21.70;99.90
10492;DHT22;5293;51.464;-2.566;2022-07-05T13:24:04;21.70;99.90
10492;DHT22;5293;51.464;-2.566;2022-07-05T13:26:30;21.70;99.90
10492;DHT22;5293;51.464;-2.566;2022-07-05T13:28:56;22.00;99.90
10492;DHT22;5293;51.464;-2.566;2022-07-05T13:31:22;21.70;99.90
10492;DHT22;5293;51.464;-2.566;2022-07-05T13:33:47;21.80;99.90
10492;DHT22;5293;51.464;-2.566;2022-07-05T13:36:13;21.70;99.90
10492;DHT22;5293;51.464;-2.566;2022-07-05T13:38:39;21.80;99.90
10492;DHT22;5293;51.464;-2.566;2022-07-05T13:41:04;21.90;99.90
10492;DHT22;5293;51.464;-2.566;2022-07-05T13:43:30;22.10;99.90
10492;DHT22;5293;51.464;-2.566;2022-07-05T13:45:56;22.10;99.90
10492;DHT22;5293;51.464;-2.566;2022-07-05T13:48:21;22.20;99.90
10492;DHT22;5293;51.464;-2.566;2022-07-05T13:50:47;22.30;99.90
10492;DHT22;5293;51.464;-2.566;2022-07-05T13:53:13;22.50;99.90
10492;DHT22;5293;51.464;-2.566;2022-07-05T13:55:38;22.60;99.90
10492;DHT22;5293;51.464;-2.566;2022-07-05T13:58:04;22.50;99.90
10492;DHT22;5293;51.464;-2.566;2022-07-05T14:00:30;22.30;99.90
10492;DHT22;5293;51.464;-2.566;2022-07-05T14:02:55;22.30;99.90
10492;DHT22;5293;51.464;-2.566;2022-07-05T14:05:21;22.20;99.90
10492;DHT22;5293;51.464;-2.566;2022-07-05T14:07:49;22.50;99.90
10492;DHT22;5293;51.464;-2.566;2022-07-05T14:10:15;22.70;99.90
10492;DHT22;5293;51.464;-2.566;2022-07-05T14:12:41;22.70;99.90
10492;DHT22;5293;51.464;-2.566;2022-07-05T14:15:07;22.80;99.90
10492;DHT22;5293;51.464;-2.566;2022-07-05T14:17:33;22.70;99.90
10492;DHT22;5293;51.464;-2.566;2022-07-05T14:19:59;22.70;99.90
10492;DHT22;5293;51.464;-2.566;2022-07-05T14:22:25;22.60;99.90
10492;DHT22;5293;51.464;-2.566;2022-07-05T14:24:50;22.60;99.90
10492;DHT22;5293;51.464;-2.566;2022-07-05T14:27:19;22.40;99.90
10492;DHT22;5293;51.464;-2.566;2022-07-05T14:29:44;22.40;99.90
10492;DHT22;5293;51.464;-2.566;2022-07-05T14:32:10;22.50;99.90
10492;DHT22;5293;51.464;-2.566;2022-07-05T14:34:36;22.70;99.90
10492;DHT22;5293;51.464;-2.566;2022-07-05T14:37:01;22.90;99.90
10492;DHT22;5293;51.464;-2.566;2022-07-05T14:39:27;23.00;99.90
10492;DHT22;5293;51.464;-2.566;2022-07-05T14:41:53;22.90;99.90
10492;DHT22;5293;51.464;-2.566;2022-07-05T14:44:20;22.80;99.90
10492;DHT22;5293;51.464;-2.566;2022-07-05T14:46:45;22.80;99.90
10492;DHT22;5293;51.464;-2.566;2022-07-05T14:49:11;22.90;99.90
10492;DHT22;5293;51.464;-2.566;2022-07-05T14:51:36;23.20;99.90
10492;DHT22;5293;51.464;-2.566;2022-07-05T14:54:02;23.10;99.90
10492;DHT22;5293;51.464;-2.566;2022-07-05T14:56:28;23.10;99.90
10492;DHT22;5293;51.464;-2.566;2022-07-05T14:58:54;22.90;99.90
10492;DHT22;5293;51.464;-2.566;2022-07-05T15:01:19;22.80;99.90
10492;DHT22;5293;51.464;-2.566;2022-07-05T15:03:46;22.80;99.90
10492;DHT22;5293;51.464;-2.566;2022-07-05T15:06:11;22.70;99.90
10492;DHT22;5293;51.464;-2.566;2022-07-05T15:08:37;22.80;99.90
10492;DHT22;5293;51.464;-2.566;2022-07-05T15:11:04;22.80;99.90
10492;DHT22;5293;51.464;-2.566;2022-07-05T15:13:30;22.80;99.90
10492;DHT22;5293;51.464;-2.566;2022-07-05T15:15:57;22.90;99.90
10492;DHT22;5293;51.464;-2.566;2022-07-05T15:18:23;22.90;99.90
10492;DHT22;5293;51.464;-2.566;2022-07-05T15:20:49;22.70;99.90
10492;DHT22;5293;51.464;-2.566;2022-07-05T15:23:17;22.60;99.90
10492;DHT22;5293;51.464;-2.566;2022-07-05T15:25:44;22.40;99.90
10492;DHT22;5293;51.464;-2.566;2022-07-05T15:28:10;22.50;99.90
10492;DHT22;5293;51.464;-2.566;2022-07-05T15:30:38;22.50;99.90
10492;DHT22;5293;51.464;-2.566;2022-07-05T15:33:04;22.70;99.90
10492;DHT22;5293;51.464;-2.566;2022-07-05T15:35:30;22.80;99.90
10492;DHT22;5293;51.464;-2.566;2022-07-05T15:37:56;23.10;99.90
10492;DHT22;5293;51.464;-2.566;2022-07-05T15:40:21;23.00;99.90
10492;DHT22;5293;51.464;-2.566;2022-07-05T15:42:47;23.00;99.90
10492;DHT22;5293;51.464;-2.566;2022-07-05T15:45:13;22.80;99.90
10492;DHT22;5293;51.464;-2.566;2022-07-05T15:47:38;22.70;99.90
10492;DHT22;5293;51.464;-2.566;2022-07-05T15:50:08;22.60;99.90
10492;DHT22;5293;51.464;-2.566;2022-07-05T15:52:39;22.50;99.90